Time;durP1;ratioP1;P1;durP2;ratioP2;P2;SDS_P1;SDS_P2;PMS_P1;PMS_P2;Temp;Humidity;BMP_temperature;BMP_pressure;BME280_temperature;BME280_humidity;BME280_pressure;Samples;Min_cycle;Max_cycle;Signal;HPM_P1;HPM_P2
2022/01/25 00:15:42;;;;;;;18.57;9.70;;;;;;;3.67;75.56;102288.00;5128282;27;20214;-68
2022/01/25 00:26:35;;;;;;;15.33;8.30;;;;;;;3.93;74.04;102277.31;5128092;27;20259;-67
2022/01/25 00:29:08;;;;;;;17.60;8.73;;;;;;;3.93;73.67;102276.47;5125541;27;20490;-68
2022/01/25 00:31:38;;;;;;;14.00;7.87;;;;;;;3.64;74.22;102277.63;5125430;27;20220;-67
2022/01/25 00:34:10;;;;;;;17.70;8.47;;;;;;;3.75;74.16;102283.31;5125167;27;20208;-67
2022/01/25 00:36:37;;;;;;;18.30;9.23;;;;;;;3.65;74.27;102280.19;5123420;27;20212;-68
2022/01/25 00:39:06;;;;;;;18.87;8.70;;;;;;;3.51;74.94;102281.63;5126885;27;20205;-67
2022/01/25 00:41:35;;;;;;;19.33;9.40;;;;;;;3.51;74.58;102276.41;5126656;27;20246;-68
2022/01/25 00:44:05;;;;;;;14.33;8.73;;;;;;;3.28;75.32;102275.47;5124859;27;20227;-68
2022/01/25 00:46:33;;;;;;;15.37;8.90;;;;;;;3.49;73.88;102283.47;5129874;27;20686;-68
2022/01/25 00:49:03;;;;;;;15.40;8.60;;;;;;;3.22;75.09;102290.59;5123954;27;20209;-68
2022/01/25 00:52:05;;;;;;;15.23;8.63;;;;;;;3.09;76.19;102292.81;5118499;27;20213;-68
2022/01/25 00:54:35;;;;;;;19.83;9.07;;;;;;;3.56;74.14;102284.94;5117553;27;20205;-68
2022/01/25 00:57:05;;;;;;;16.23;9.80;;;;;;;3.60;73.80;102290.00;5127085;27;20303;-67
2022/01/25 00:59:33;;;;;;;19.37;8.87;;;;;;;3.51;73.32;102285.13;5125602;27;20640;-67
2022/01/25 01:02:04;;;;;;;15.57;9.30;;;;;;;3.47;73.79;102287.91;5123109;27;20213;-68
2022/01/25 01:04:33;;;;;;;15.87;8.53;;;;;;;3.52;73.88;102288.59;5122961;27;20661;-68
2022/01/25 01:07:03;;;;;;;16.63;8.27;;;;;;;3.53;73.67;102285.88;5123632;27;20245;-68
2022/01/25 01:09:34;;;;;;;15.77;8.40;;;;;;;3.42;74.35;102282.84;5118280;27;20579;-68
2022/01/25 01:12:08;;;;;;;16.97;8.40;;;;;;;3.71;73.43;102289.56;5128832;27;20203;-68
2022/01/25 01:14:53;;;;;;;19.03;9.83;;;;;;;2.95;76.30;102292.47;5127062;27;20234;-68
2022/01/25 01:31:22;;;;;;;18.43;9.20;;;;;;;3.46;75.07;102289.66;5125307;27;20319;-69
2022/01/25 01:39:41;;;;;;;18.00;9.83;;;;;;;3.33;75.10;102294.53;5121484;27;20271;-67
2022/01/25 01:42:32;;;;;;;18.30;10.00;;;;;;;3.46;75.24;102296.69;5125917;27;20212;-67
2022/01/25 01:45:26;;;;;;;21.07;9.90;;;;;;;3.61;74.29;102285.59;5127554;27;20331;-67
2022/01/25 01:48:01;;;;;;;19.30;10.23;;;;;;;3.46;75.08;102289.66;5125539;27;20215;-67
2022/01/25 01:50:31;;;;;;;19.27;9.67;;;;;;;3.30;75.56;102284.16;5122066;27;20217;-67
2022/01/25 01:53:00;;;;;;;20.30;10.87;;;;;;;3.46;75.27;102284.44;5117100;27;20203;-67
2022/01/25 01:55:28;;;;;;;21.03;10.40;;;;;;;3.51;75.04;102290.38;5124374;27;20575;-67
2022/01/25 01:57:57;;;;;;;21.10;10.03;;;;;;;3.13;76.54;102293.56;5126673;27;20245;-67
2022/01/25 02:00:30;;;;;;;19.50;10.13;;;;;;;3.14;76.69;102288.25;5124155;27;20324;-67
2022/01/25 02:03:00;;;;;;;18.73;9.63;;;;;;;3.21;76.41;102288.88;5122753;27;20275;-67
2022/01/25 02:05:29;;;;;;;18.83;10.07;;;;;;;2.90;77.10;102295.22;5124373;27;20238;-67
2022/01/25 02:07:57;;;;;;;20.43;10.07;;;;;;;3.07;76.59;102292.03;5121315;27;20211;-67
2022/01/25 02:10:25;;;;;;;18.70;9.53;;;;;;;3.29;74.94;102279.81;5123639;27;20293;-67
2022/01/25 02:12:54;;;;;;;22.07;10.73;;;;;;;3.26;74.69;102273.81;5122670;27;20236;-67
2022/01/25 02:15:25;;;;;;;19.90;10.73;;;;;;;3.22;74.44;102270.47;5123589;27;20215;-67
2022/01/25 02:23:27;;;;;;;16.60;9.63;;;;;;;3.17;73.25;102261.06;5121081;27;20732;-67
2022/01/25 02:25:57;;;;;;;17.93;9.00;;;;;;;3.32;72.44;102258.75;5123909;27;20266;-67
2022/01/25 02:28:29;;;;;;;17.97;9.43;;;;;;;3.27;72.45;102260.66;5123855;27;20309;-67
2022/01/25 02:30:57;;;;;;;17.73;9.77;;;;;;;3.24;72.25;102260.78;5123777;27;20716;-67
2022/01/25 02:33:26;;;;;;;19.23;9.93;;;;;;;3.15;72.33;102248.03;5125633;27;20199;-67
2022/01/25 02:35:57;;;;;;;20.23;11.00;;;;;;;3.35;72.08;102255.13;5125487;27;20680;-67
2022/01/25 02:38:26;;;;;;;18.27;9.67;;;;;;;3.31;72.30;102256.16;5123149;27;20220;-67
2022/01/25 02:40:56;;;;;;;19.50;10.77;;;;;;;3.21;72.14;102258.28;5123703;27;20215;-67
2022/01/25 02:43:24;;;;;;;18.53;8.90;;;;;;;3.10;72.94;102259.59;5112164;27;20295;-67
2022/01/25 02:46:17;;;;;;;22.77;10.13;;;;;;;2.95;73.01;102256.63;5123165;27;20225;-67
2022/01/25 02:48:52;;;;;;;22.50;10.70;;;;;;;3.11;72.81;102256.06;5117213;27;20214;-67
2022/01/25 02:51:23;;;;;;;19.30;10.53;;;;;;;3.01;73.35;102260.78;5122321;27;20298;-67
2022/01/25 02:53:51;;;;;;;20.87;9.83;;;;;;;2.74;74.37;102264.38;5125229;28;20222;-67
2022/01/25 02:56:19;;;;;;;20.47;11.03;;;;;;;3.05;73.88;102258.91;5122786;28;20261;-67
2022/01/25 02:58:47;;;;;;;20.07;10.47;;;;;;;3.10;73.57;102249.94;5124890;28;20206;-66
2022/01/25 03:01:16;;;;;;;23.30;11.30;;;;;;;2.98;73.60;102266.16;5124929;28;20217;-68
2022/01/25 03:03:44;;;;;;;22.57;10.40;;;;;;;3.04;73.71;102265.91;5123436;28;20207;-66
2022/01/25 03:06:14;;;;;;;22.43;11.60;;;;;;;3.16;73.54;102262.84;5124924;28;20434;-66
2022/01/25 03:08:44;;;;;;;22.03;12.10;;;;;;;3.09;73.62;102274.44;5123904;28;20568;-67
2022/01/25 03:11:14;;;;;;;20.60;10.50;;;;;;;3.08;73.19;102267.50;5124837;27;20215;-66
2022/01/25 03:13:50;;;;;;;21.97;11.40;;;;;;;3.38;72.54;102261.13;5122643;28;20217;-66
2022/01/25 03:16:27;;;;;;;22.97;10.90;;;;;;;3.17;72.57;102259.28;5123719;28;20207;-66
2022/01/25 03:18:56;;;;;;;22.70;11.17;;;;;;;3.13;72.62;102267.34;5117561;28;20607;-66
2022/01/25 03:21:37;;;;;;;19.43;10.23;;;;;;;3.17;72.50;102264.53;5122855;28;20214;-66
2022/01/25 03:24:08;;;;;;;22.47;10.23;;;;;;;3.02;72.86;102275.59;5124552;28;20698;-67
2022/01/25 03:26:36;;;;;;;17.97;9.90;;;;;;;2.90;72.94;102276.06;5128339;28;20266;-67
2022/01/25 03:29:05;;;;;;;18.17;9.70;;;;;;;2.84;73.63;102268.41;5113701;28;20668;-67
2022/01/25 03:31:33;;;;;;;19.10;10.50;;;;;;;2.96;72.67;102270.59;5123870;27;20210;-67
2022/01/25 03:34:01;;;;;;;22.63;11.67;;;;;;;3.06;72.28;102268.50;5118053;28;20209;-66
2022/01/25 03:36:29;;;;;;;21.53;11.00;;;;;;;2.87;73.68;102266.53;5126732;28;20206;-66
2022/01/25 03:38:57;;;;;;;21.13;11.37;;;;;;;2.87;73.95;102266.53;5124218;28;20217;-67
2022/01/25 03:41:26;;;;;;;23.53;11.30;;;;;;;3.07;73.57;102262.34;5118896;28;20207;-67
2022/01/25 03:43:56;;;;;;;24.27;11.63;;;;;;;3.12;73.39;102258.63;5126069;27;20439;-67
2022/01/25 03:46:34;;;;;;;23.07;10.63;;;;;;;3.09;73.04;102250.84;5119929;28;20595;-68
2022/01/25 03:51:47;;;;;;;25.20;10.67;;;;;;;2.92;73.26;102268.97;5126023;27;20285;-67
2022/01/25 03:54:15;;;;;;;18.10;9.40;;;;;;;2.77;73.59;102266.91;5122360;27;20642;-68
2022/01/25 03:56:46;;;;;;;20.83;10.17;;;;;;;2.71;73.92;102267.13;5119466;28;20605;-66
2022/01/25 03:59:14;;;;;;;22.07;10.43;;;;;;;2.74;73.54;102267.00;5128824;27;20767;-67
2022/01/25 04:01:42;;;;;;;24.00;11.00;;;;;;;2.61;74.04;102264.84;5129275;27;20584;-66
2022/01/25 04:04:13;;;;;;;23.93;11.40;;;;;;;2.61;73.88;102264.84;5125839;27;20656;-67
2022/01/25 04:06:46;;;;;;;24.00;10.77;;;;;;;2.66;73.66;102264.66;5129536;27;20651;-67
2022/01/25 04:09:14;;;;;;;19.50;10.83;;;;;;;2.71;73.16;102268.00;5129162;27;20292;-67
2022/01/25 04:11:43;;;;;;;21.00;10.73;;;;;;;2.34;74.52;102273.66;5122488;27;20404;-67
2022/01/25 04:14:12;;;;;;;21.97;10.57;;;;;;;2.04;75.44;102266.78;5124602;27;20267;-67
2022/01/25 04:16:49;;;;;;;23.57;10.73;;;;;;;2.56;74.11;102278.97;5124571;27;20198;-67
2022/01/25 04:19:26;;;;;;;19.17;10.17;;;;;;;2.58;73.41;102277.19;5127769;27;20197;-67
2022/01/25 04:25:02;;;;;;;19.47;10.60;;;;;;;2.35;73.88;102259.66;5128167;27;20296;-67
2022/01/25 04:27:32;;;;;;;19.73;9.67;;;;;;;2.32;74.07;102262.34;5128207;27;20213;-67
2022/01/25 04:30:00;;;;;;;17.33;9.37;;;;;;;2.42;73.76;102261.16;5112021;27;20307;-67
2022/01/25 04:32:34;;;;;;;19.53;10.63;;;;;;;2.44;72.95;102254.09;5115736;27;20613;-67
2022/01/25 04:35:13;;;;;;;16.73;9.77;;;;;;;2.32;73.23;102249.28;5117295;27;20205;-67
2022/01/25 04:48:58;;;;;;;28.40;11.13;;;;;;;2.54;72.57;102245.03;5116317;27;20213;-67
2022/01/25 04:54:18;;;;;;;22.53;10.80;;;;;;;2.42;72.61;102255.03;5126865;27;20201;-66
2022/01/25 04:56:53;;;;;;;22.57;10.67;;;;;;;2.42;72.28;102257.66;5129610;27;20728;-67
2022/01/25 04:59:28;;;;;;;18.27;9.83;;;;;;;2.37;72.65;102252.59;5120821;27;20593;-68
2022/01/25 05:02:03;;;;;;;22.07;10.80;;;;;;;2.31;72.01;102263.25;5126424;27;20721;-68
2022/01/25 05:04:37;;;;;;;21.43;10.80;;;;;;;2.55;71.67;102264.22;5126850;27;20300;-68
2022/01/25 05:07:17;;;;;;;25.30;11.23;;;;;;;2.73;71.46;102255.66;5122832;27;20231;-68
2022/01/25 05:09:46;;;;;;;22.40;10.73;;;;;;;3.03;70.60;102257.19;5123266;27;20201;-67
2022/01/25 05:12:14;;;;;;;25.97;11.57;;;;;;;3.10;70.51;102249.09;5122331;27;20320;-67
2022/01/25 05:14:57;;;;;;;24.37;11.43;;;;;;;3.13;70.86;102251.63;5121461;27;20223;-67
2022/01/25 05:17:34;;;;;;;21.77;11.97;;;;;;;2.90;70.93;102255.91;5116239;27;20209;-67
2022/01/25 05:22:43;;;;;;;23.27;11.20;;;;;;;2.41;72.86;102261.19;5120302;27;20210;-66
2022/01/25 05:25:11;;;;;;;25.50;11.00;;;;;;;2.35;73.05;102264.88;5120299;27;22195;-67
2022/01/25 05:27:38;;;;;;;24.87;12.23;;;;;;;2.47;72.87;102258.34;5114662;27;20213;-67
2022/01/25 05:30:09;;;;;;;23.17;11.47;;;;;;;2.33;72.93;102256.22;5120156;27;20235;-68
2022/01/25 05:32:37;;;;;;;22.57;11.80;;;;;;;2.06;74.38;102249.28;5118262;27;21352;-67
2022/01/25 05:35:06;;;;;;;22.27;12.03;;;;;;;2.26;73.43;102257.34;5120836;27;20214;-67
2022/01/25 05:37:40;;;;;;;20.33;10.87;;;;;;;2.51;72.29;102254.72;5123960;27;20209;-67
2022/01/25 05:40:14;;;;;;;26.00;12.07;;;;;;;2.54;71.81;102245.03;5121573;27;20754;-67
2022/01/25 05:42:49;;;;;;;20.60;11.10;;;;;;;2.51;71.65;102239.88;5128942;27;20249;-67
2022/01/25 05:45:25;;;;;;;21.77;11.70;;;;;;;2.39;71.88;102250.75;5122191;27;20212;-67
2022/01/25 05:47:53;;;;;;;25.00;12.03;;;;;;;2.32;72.58;102254.50;5126467;27;20296;-67
2022/01/25 05:50:21;;;;;;;22.57;11.63;;;;;;;2.44;72.28;102256.72;5120366;27;20214;-66
2022/01/25 05:52:48;;;;;;;23.90;12.23;;;;;;;2.42;72.49;102250.66;5125957;27;20953;-66
2022/01/25 05:55:16;;;;;;;23.40;11.43;;;;;;;2.46;72.42;102252.25;5125886;27;20603;-66
2022/01/25 05:57:44;;;;;;;21.43;11.97;;;;;;;2.82;71.04;102249.25;5122406;27;20248;-66
2022/01/25 06:00:13;;;;;;;23.40;11.30;;;;;;;2.60;71.68;102244.78;5125299;27;20244;-67
2022/01/25 06:02:42;;;;;;;25.40;11.37;;;;;;;2.52;71.97;102257.31;5118329;27;20206;-67
2022/01/25 06:05:10;;;;;;;23.03;11.53;;;;;;;2.45;71.93;102255.81;5119354;27;20205;-67
2022/01/25 06:07:38;;;;;;;22.30;10.97;;;;;;;2.32;72.63;102257.13;5125045;27;20275;-67
2022/01/25 06:10:08;;;;;;;20.57;11.03;;;;;;;2.17;72.93;102257.66;5126613;27;20204;-67
2022/01/25 06:12:35;;;;;;;26.13;12.10;;;;;;;2.15;73.14;102259.44;5121840;27;20220;-66
2022/01/25 06:15:04;;;;;;;23.33;11.40;;;;;;;1.92;73.96;102264.59;5119726;27;20652;-66
2022/01/25 06:17:31;;;;;;;24.70;11.47;;;;;;;2.45;72.32;102274.16;5118754;27;20205;-66
2022/01/25 06:20:00;;;;;;;23.13;10.90;;;;;;;2.53;71.24;102272.13;5121626;27;20206;-66
2022/01/25 06:22:28;;;;;;;24.43;10.57;;;;;;;2.51;70.58;102276.53;5128076;27;20708;-67
2022/01/25 06:24:56;;;;;;;23.33;12.20;;;;;;;2.31;71.40;102273.75;5123331;27;20293;-67
2022/01/25 06:27:24;;;;;;;21.33;11.23;;;;;;;2.42;71.56;102266.38;5119659;27;20237;-66
2022/01/25 06:29:52;;;;;;;24.33;11.93;;;;;;;2.43;71.71;102262.84;5124008;27;20210;-67
2022/01/25 06:32:20;;;;;;;28.53;12.23;;;;;;;2.51;71.36;102259.97;5126358;27;20205;-66
2022/01/25 06:34:48;;;;;;;25.20;12.57;;;;;;;2.44;71.88;102264.56;5126271;27;20585;-66
2022/01/25 06:37:17;;;;;;;22.50;11.03;;;;;;;2.74;70.83;102251.28;5123156;27;20208;-67
2022/01/25 06:39:45;;;;;;;24.97;12.50;;;;;;;2.65;71.19;102258.56;5125361;27;20649;-68
2022/01/25 06:42:13;;;;;;;27.43;13.03;;;;;;;2.73;70.39;102257.47;5125767;27;20720;-68
2022/01/25 06:44:40;;;;;;;26.67;13.10;;;;;;;2.90;70.11;102268.19;5124519;27;20308;-68
2022/01/25 06:47:08;;;;;;;25.77;13.53;;;;;;;2.50;71.29;102266.97;5120767;27;20229;-68
2022/01/25 06:49:36;;;;;;;27.40;13.03;;;;;;;2.29;72.37;102266.88;5121195;27;20265;-68
2022/01/25 06:52:10;;;;;;;25.33;12.57;;;;;;;2.67;71.12;102270.75;5120114;27;20208;-68
2022/01/25 06:54:41;;;;;;;22.23;12.00;;;;;;;2.75;70.60;102273.97;5120886;27;20212;-68
2022/01/25 06:57:09;;;;;;;24.70;12.00;;;;;;;2.78;70.39;102276.50;5125165;27;20269;-68
2022/01/25 06:59:37;;;;;;;22.17;11.87;;;;;;;2.79;70.00;102283.44;5125893;27;20452;-67
2022/01/25 07:02:06;;;;;;;22.20;12.23;;;;;;;2.79;70.10;102279.06;5119557;28;20661;-68
2022/01/25 07:04:35;;;;;;;27.27;12.47;;;;;;;2.88;69.60;102283.13;5122692;28;20228;-68
2022/01/25 07:07:03;;;;;;;20.70;11.23;;;;;;;3.01;69.13;102276.50;5122764;28;20724;-68
2022/01/25 07:09:30;;;;;;;23.90;12.63;;;;;;;2.87;69.76;102284.88;5123925;28;20201;-68
2022/01/25 07:12:00;;;;;;;22.43;11.70;;;;;;;2.36;71.75;102292.78;5117057;28;20648;-69
2022/01/25 07:14:28;;;;;;;25.50;12.17;;;;;;;2.07;72.37;102285.03;5123007;28;20502;-69
2022/01/25 07:16:55;;;;;;;27.77;12.60;;;;;;;2.50;71.17;102287.91;5121874;28;20333;-68
2022/01/25 07:19:24;;;;;;;22.40;11.40;;;;;;;2.07;71.90;102279.78;5121618;28;20211;-68
2022/01/25 07:21:51;;;;;;;25.57;12.10;;;;;;;2.48;71.41;102291.50;5118482;28;20213;-68
2022/01/25 07:24:19;;;;;;;27.57;13.77;;;;;;;2.51;70.83;102292.25;5116913;28;20296;-68
2022/01/25 07:26:48;;;;;;;30.57;15.20;;;;;;;2.42;70.59;102289.94;5105923;28;20340;-65
2022/01/25 07:29:18;;;;;;;30.97;14.57;;;;;;;2.71;70.06;102285.47;5100722;28;20293;-65
2022/01/25 07:31:45;;;;;;;28.63;13.83;;;;;;;2.80;69.29;102279.91;5104389;28;20557;-66
2022/01/25 07:34:21;;;;;;;26.17;12.93;;;;;;;2.96;69.01;102274.06;5103925;27;20227;-66
2022/01/25 07:36:50;;;;;;;24.77;12.37;;;;;;;2.51;70.98;102280.91;5106567;28;20214;-66
2022/01/25 07:39:21;;;;;;;25.63;12.20;;;;;;;2.73;70.36;102278.44;5108614;27;20199;-66
2022/01/25 07:41:53;;;;;;;26.33;11.73;;;;;;;2.96;69.72;102278.44;5109206;28;20217;-65
2022/01/25 07:44:26;;;;;;;27.73;12.27;;;;;;;2.73;70.39;102281.03;5108553;27;20230;-65
2022/01/25 07:46:58;;;;;;;24.63;11.83;;;;;;;2.15;72.48;102283.88;5084216;28;20774;-64
2022/01/25 07:49:26;;;;;;;25.93;11.53;;;;;;;2.55;70.98;102288.59;5107710;28;20215;-65
2022/01/25 07:51:55;;;;;;;22.17;11.20;;;;;;;2.21;72.17;102281.03;5102565;28;20616;-65
2022/01/25 07:54:23;;;;;;;23.60;12.07;;;;;;;2.69;71.01;102280.28;5106569;28;20209;-65
2022/01/25 07:56:51;;;;;;;28.73;12.67;;;;;;;2.36;71.88;102284.06;5104192;28;20217;-65
2022/01/25 07:59:19;;;;;;;25.93;12.53;;;;;;;2.53;71.17;102289.59;5106952;28;20270;-65
2022/01/25 08:01:49;;;;;;;24.70;11.27;;;;;;;2.70;70.90;102278.53;5111952;28;20774;-66
2022/01/25 08:04:36;;;;;;;28.93;12.63;;;;;;;2.58;71.24;102277.19;5104103;28;20221;-66
2022/01/25 08:07:21;;;;;;;25.90;12.43;;;;;;;2.83;70.83;102277.16;5100030;28;20226;-65
2022/01/25 08:10:03;;;;;;;25.90;12.43;;;;;;;2.90;69.43;102284.75;5089418;28;20248;-65
2022/01/25 08:12:44;;;;;;;26.83;12.83;;;;;;;2.60;71.09;102294.56;5095246;28;20321;-66
2022/01/25 08:15:43;;;;;;;25.03;12.17;;;;;;;2.82;70.24;102292.03;5100134;28;20211;-66
2022/01/25 08:18:32;;;;;;;22.73;10.50;;;;;;;2.78;70.25;102297.44;5098351;27;20214;-65
2022/01/25 08:21:03;;;;;;;24.30;10.83;;;;;;;2.68;70.80;102290.81;5108616;28;20229;-65
2022/01/25 08:23:36;;;;;;;23.17;11.23;;;;;;;2.91;70.24;102296.09;5097414;28;20295;-65
2022/01/25 08:26:20;;;;;;;22.37;10.53;;;;;;;2.75;70.84;102300.16;5067910;27;20695;-64
2022/01/25 08:29:03;;;;;;;24.40;9.60;;;;;;;2.84;70.67;102294.59;5107825;27;20230;-65
2022/01/25 08:32:03;;;;;;;19.23;10.53;;;;;;;3.29;69.08;102298.19;5066167;28;20704;-65
2022/01/25 08:34:43;;;;;;;21.00;11.23;;;;;;;3.11;69.50;102296.22;5065124;28;20220;-66
2022/01/25 08:37:34;;;;;;;21.73;10.70;;;;;;;3.30;69.53;102294.66;4987437;28;20351;-65
2022/01/25 08:40:19;;;;;;;21.00;10.80;;;;;;;3.22;69.89;102301.94;4900318;29;20304;-65
2022/01/25 08:43:04;;;;;;;22.33;12.33;;;;;;;3.32;69.17;102311.19;4903731;29;20273;-65
2022/01/25 08:45:44;;;;;;;30.67;13.50;;;;;;;3.23;69.99;102308.03;4904467;29;20218;-64
2022/01/25 08:48:15;;;;;;;22.53;11.87;;;;;;;3.40;69.57;102305.66;4907105;29;20229;-65
2022/01/25 08:51:20;;;;;;;21.70;11.97;;;;;;;3.40;69.83;102314.38;4866091;29;20222;-65
2022/01/25 08:54:06;;;;;;;26.23;12.97;;;;;;;3.24;70.85;102318.47;4852072;29;20590;-66
2022/01/25 08:56:47;;;;;;;28.10;13.20;;;;;;;3.53;70.00;102317.38;4861833;29;20216;-66
2022/01/25 08:59:41;;;;;;;26.00;13.83;;;;;;;3.65;69.77;102321.31;4855544;29;20677;-65
2022/01/25 09:02:10;;;;;;;26.17;12.67;;;;;;;3.42;70.26;102323.97;4864865;29;20226;-66
2022/01/25 09:04:38;;;;;;;25.10;13.33;;;;;;;3.54;70.25;102326.09;4878893;29;20237;-64
2022/01/25 09:07:07;;;;;;;27.37;14.53;;;;;;;3.42;70.21;102334.44;4917350;29;20292;-65
2022/01/25 09:09:35;;;;;;;31.03;13.63;;;;;;;2.86;72.25;102329.47;4927693;29;20223;-64
2022/01/25 09:12:04;;;;;;;28.93;14.07;;;;;;;2.75;73.12;102342.94;4915394;29;20226;-64
2022/01/25 09:14:32;;;;;;;33.10;15.00;;;;;;;3.03;72.70;102342.84;4982410;28;20212;-66
2022/01/25 09:17:00;;;;;;;35.77;14.27;;;;;;;3.24;71.93;102342.09;5065105;27;20207;-65
2022/01/25 09:19:27;;;;;;;32.57;14.57;;;;;;;3.16;72.17;102340.66;5128364;27;20222;-64
2022/01/25 09:21:58;;;;;;;35.57;16.03;;;;;;;2.94;72.64;102343.16;5124341;27;20220;-64
2022/01/25 09:24:28;;;;;;;34.87;14.67;;;;;;;3.31;72.38;102346.19;5128600;27;20211;-65
2022/01/25 09:26:55;;;;;;;30.87;14.90;;;;;;;3.09;72.56;102349.63;5117189;27;20242;-64
2022/01/25 09:29:23;;;;;;;31.07;13.83;;;;;;;2.84;74.10;102342.63;5102692;27;20211;-64
2022/01/25 09:31:51;;;;;;;27.50;14.73;;;;;;;3.06;73.82;102347.97;5102122;27;20306;-64
2022/01/25 09:34:20;;;;;;;30.90;15.57;;;;;;;2.73;75.29;102346.53;5100197;27;20212;-65
2022/01/25 09:36:48;;;;;;;29.67;14.90;;;;;;;2.45;76.67;102336.13;5101083;27;20211;-66
2022/01/25 09:39:19;;;;;;;33.37;14.03;;;;;;;2.49;76.82;102340.34;5122673;27;20684;-66
2022/01/25 09:41:49;;;;;;;35.40;14.90;;;;;;;2.92;74.49;102350.22;5103760;27;20241;-65
2022/01/25 09:44:16;;;;;;;30.87;15.47;;;;;;;3.18;73.77;102342.28;5102892;28;20219;-66
2022/01/25 09:46:45;;;;;;;33.97;16.73;;;;;;;2.82;75.64;102341.81;5104204;28;20457;-66
2022/01/25 09:49:13;;;;;;;30.57;16.07;;;;;;;3.06;75.02;102337.50;5113598;27;20222;-67
2022/01/25 09:51:41;;;;;;;37.47;16.07;;;;;;;3.27;74.54;102341.09;5097804;27;20294;-65
2022/01/25 09:54:09;;;;;;;34.47;15.60;;;;;;;2.69;77.16;102345.78;5103357;27;20216;-66
2022/01/25 09:56:37;;;;;;;33.50;16.07;;;;;;;2.78;76.91;102355.94;5106061;27;20206;-66
2022/01/25 09:59:06;;;;;;;31.00;15.83;;;;;;;3.41;74.60;102346.69;5107961;28;20239;-65
2022/01/25 10:01:37;;;;;;;28.93;14.73;;;;;;;3.55;73.52;102352.28;5110662;27;20199;-65
2022/01/25 10:04:28;;;;;;;33.63;14.70;;;;;;;2.57;78.67;102349.66;5112675;27;20201;-66
2022/01/25 10:07:04;;;;;;;34.43;15.57;;;;;;;2.72;79.35;102352.69;5101078;27;20222;-66
2022/01/25 10:09:33;;;;;;;31.00;13.93;;;;;;;2.60;79.10;102357.44;5102974;27;20360;-65
2022/01/25 10:12:17;;;;;;;29.60;14.03;;;;;;;3.08;77.84;102359.25;5098924;27;20225;-66
2022/01/25 10:14:54;;;;;;;27.60;13.47;;;;;;;2.71;79.60;102353.59;5098752;28;20203;-65
2022/01/25 10:17:33;;;;;;;29.10;14.67;;;;;;;2.74;79.96;102350.84;5107153;27;20870;-66
2022/01/25 10:20:03;;;;;;;31.80;15.67;;;;;;;2.67;80.29;102344.09;5118262;27;20557;-66
2022/01/25 10:22:46;;;;;;;34.13;14.70;;;;;;;2.98;79.38;102344.78;5106122;27;20747;-64
2022/01/25 10:25:30;;;;;;;36.63;15.20;;;;;;;3.72;75.21;102338.50;5101767;28;20298;-67
2022/01/25 10:28:03;;;;;;;29.20;14.50;;;;;;;2.84;79.49;102347.88;5106032;27;20320;-64
2022/01/25 10:30:45;;;;;;;33.93;16.00;;;;;;;3.07;78.36;102354.94;5114516;27;20548;-65
2022/01/25 10:33:23;;;;;;;35.80;16.00;;;;;;;3.72;75.97;102341.13;5104005;28;20238;-65
2022/01/25 10:35:53;;;;;;;31.30;16.20;;;;;;;3.99;74.40;102347.94;5100205;28;20210;-64
2022/01/25 10:38:24;;;;;;;35.33;16.33;;;;;;;3.94;74.48;102342.03;5104483;27;20251;-66
2022/01/25 10:41:15;;;;;;;36.83;15.93;;;;;;;3.99;74.55;102347.94;5102827;28;20270;-66
2022/01/25 10:43:48;;;;;;;36.93;15.33;;;;;;;4.05;75.08;102345.06;5102081;27;20299;-66
2022/01/25 10:46:18;;;;;;;32.47;16.53;;;;;;;4.10;74.45;102350.16;5104491;27;20258;-65
2022/01/25 10:48:49;;;;;;;36.67;16.63;;;;;;;4.06;75.51;102345.91;5112394;28;20247;-66
2022/01/25 10:51:21;;;;;;;37.20;17.03;;;;;;;3.69;77.00;102344.72;5106951;28;20230;-66
2022/01/25 10:54:05;;;;;;;37.43;17.37;;;;;;;3.94;75.94;102342.03;5108758;27;20215;-64
2022/01/25 10:56:37;;;;;;;43.93;17.87;;;;;;;3.67;77.74;102325.59;5108768;28;20215;-66
2022/01/25 10:59:07;;;;;;;50.53;19.90;;;;;;;3.64;78.54;102324.84;5104320;27;20240;-66
2022/01/25 11:01:36;;;;;;;44.30;19.77;;;;;;;4.33;74.88;102328.19;5108335;28;20262;-65
2022/01/25 11:04:07;;;;;;;44.23;18.07;;;;;;;4.13;76.16;102319.34;5108773;28;20871;-65
2022/01/25 11:06:38;;;;;;;39.10;17.37;;;;;;;4.26;76.58;102324.13;5104459;28;20300;-65
2022/01/25 11:09:09;;;;;;;44.13;19.00;;;;;;;4.30;76.26;102317.84;5103121;27;20224;-65
2022/01/25 11:11:41;;;;;;;42.10;17.67;;;;;;;4.55;75.21;102315.91;5107928;27;20217;-65
2022/01/25 11:16:58;;;;;;;39.50;17.83;;;;;;;4.35;76.54;102318.50;5110754;27;20654;-65
2022/01/25 11:19:27;;;;;;;35.83;16.83;;;;;;;4.42;76.00;102328.69;5115875;27;20642;-65
2022/01/25 11:21:58;;;;;;;35.80;16.60;;;;;;;4.43;75.96;102322.50;5107855;27;20246;-66
2022/01/25 11:24:31;;;;;;;35.70;17.63;;;;;;;4.43;75.93;102327.75;5104082;28;20208;-65
2022/01/25 11:27:03;;;;;;;34.63;16.40;;;;;;;4.41;76.76;102326.09;5105629;28;20314;-62
2022/01/25 11:29:31;;;;;;;34.07;16.13;;;;;;;4.47;76.17;102318.84;5109142;28;20677;-65
2022/01/25 11:32:03;;;;;;;31.27;16.30;;;;;;;4.70;74.58;102319.63;5107024;28;20209;-64
2022/01/25 11:34:34;;;;;;;37.97;15.47;;;;;;;4.36;77.05;102312.31;5106629;27;20604;-64
2022/01/25 11:37:09;;;;;;;35.47;14.63;;;;;;;4.48;76.65;102311.81;5108540;28;20228;-66
2022/01/25 11:39:42;;;;;;;32.93;15.83;;;;;;;4.50;75.64;102316.06;5108970;28;20202;-65
2022/01/25 11:42:13;;;;;;;33.53;15.07;;;;;;;4.60;75.84;102313.91;5107394;28;20293;-65
2022/01/25 11:44:48;;;;;;;38.23;16.50;;;;;;;4.67;75.39;102320.63;5107570;28;20206;-66
2022/01/25 11:47:18;;;;;;;32.73;15.07;;;;;;;4.64;75.42;102310.25;5107744;28;20245;-65
2022/01/25 11:49:54;;;;;;;30.53;15.70;;;;;;;4.75;75.44;102313.25;5096430;28;20222;-64
2022/01/25 11:52:26;;;;;;;30.43;15.17;;;;;;;4.50;76.77;102308.19;5103336;28;20221;-66
2022/01/25 11:54:55;;;;;;;33.93;16.60;;;;;;;4.64;76.10;102306.78;5109538;27;20588;-66
2022/01/25 11:57:26;;;;;;;38.60;15.63;;;;;;;4.44;77.01;102304.97;5112429;27;20635;-66
2022/01/25 11:59:57;;;;;;;40.23;17.60;;;;;;;4.73;76.39;102309.00;5108993;28;20640;-66
2022/01/25 12:02:40;;;;;;;40.00;17.73;;;;;;;4.83;75.50;102313.81;5100221;28;20294;-66
2022/01/25 12:05:11;;;;;;;37.63;17.53;;;;;;;4.87;75.48;102307.47;5106612;27;20210;-66
2022/01/25 12:07:42;;;;;;;36.50;16.97;;;;;;;4.60;76.54;102300.78;5100852;28;20221;-65
2022/01/25 12:10:33;;;;;;;38.33;16.90;;;;;;;4.79;75.97;102306.97;5106551;28;20253;-64
2022/01/25 12:13:20;;;;;;;41.67;18.40;;;;;;;4.52;77.10;102303.72;5103063;28;20210;-65
2022/01/25 12:16:22;;;;;;;35.27;16.87;;;;;;;4.68;76.55;102303.94;5101040;28;20217;-65
2022/01/25 12:18:55;;;;;;;39.87;17.33;;;;;;;4.57;77.85;102300.94;5096710;28;20206;-65
2022/01/25 12:22:14;;;;;;;40.77;16.93;;;;;;;4.66;76.85;102303.13;5102169;28;20644;-65
2022/01/25 12:25:01;;;;;;;35.10;15.57;;;;;;;4.63;76.92;102300.66;5023165;28;20713;-64
2022/01/25 12:27:51;;;;;;;35.10;16.57;;;;;;;4.75;76.01;102286.16;5092774;28;20213;-64
2022/01/25 12:30:30;;;;;;;35.23;15.53;;;;;;;4.10;79.12;102287.13;5099568;28;20746;-65
2022/01/25 12:33:01;;;;;;;32.20;15.27;;;;;;;4.39;78.40;102299.06;5102651;28;20217;-64
2022/01/25 12:35:41;;;;;;;38.30;17.37;;;;;;;4.60;77.29;102287.63;5100054;28;20297;-64
2022/01/25 12:38:17;;;;;;;41.50;17.07;;;;;;;4.52;77.05;102297.63;5102285;28;20252;-63
2022/01/25 12:41:05;;;;;;;40.10;16.30;;;;;;;4.91;75.67;102298.53;5091411;28;20293;-64
2022/01/25 12:43:38;;;;;;;33.30;16.07;;;;;;;4.80;75.99;102287.63;5104830;27;20209;-65
2022/01/25 12:46:09;;;;;;;37.93;15.33;;;;;;;4.70;76.34;102290.72;5098999;28;20224;-64
2022/01/25 12:48:40;;;;;;;33.97;16.80;;;;;;;4.81;75.77;102291.13;5101242;28;20217;-64
2022/01/25 12:51:10;;;;;;;32.87;16.20;;;;;;;4.76;76.56;102288.69;5108946;28;20627;-64
2022/01/25 12:53:41;;;;;;;34.47;17.27;;;;;;;4.40;77.26;102295.50;5106565;28;20210;-65
2022/01/25 12:56:14;;;;;;;34.87;16.20;;;;;;;4.18;78.94;102287.66;5100144;28;20551;-65
2022/01/25 12:58:43;;;;;;;31.93;15.07;;;;;;;3.97;80.12;102280.66;5096918;28;20701;-65